sensor_id;sensor_type;location;lat;lon;timestamp;temperature;humidity
53653;DHT22;39553;52.954;5.932;2022-12-18T00:00:47;-3.50;99.90
53653;DHT22;39553;52.954;5.932;2022-12-18T00:03:14;-1.70;99.90
53653;DHT22;39553;52.954;5.932;2022-12-18T00:05:51;-1.80;99.90
53653;DHT22;39553;52.954;5.932;2022-12-18T00:08:17;-3.70;99.90
53653;DHT22;39553;52.954;5.932;2022-12-18T00:10:43;-3.60;99.90
53653;DHT22;39553;52.954;5.932;2022-12-18T00:13:10;-3.70;99.90
53653;DHT22;39553;52.954;5.932;2022-12-18T00:15:38;-1.00;99.90
53653;DHT22;39553;52.954;5.932;2022-12-18T00:18:04;-3.70;99.90
53653;DHT22;39553;52.954;5.932;2022-12-18T00:20:30;-3.70;99.90
53653;DHT22;39553;52.954;5.932;2022-12-18T00:22:56;-1.80;99.90
53653;DHT22;39553;52.954;5.932;2022-12-18T00:25:23;-3.80;99.90
53653;DHT22;39553;52.954;5.932;2022-12-18T00:27:49;-3.80;99.90
53653;DHT22;39553;52.954;5.932;2022-12-18T00:30:15;-3.80;99.90
53653;DHT22;39553;52.954;5.932;2022-12-18T00:32:41;-2.20;99.90
53653;DHT22;39553;52.954;5.932;2022-12-18T00:35:07;-3.90;99.90
53653;DHT22;39553;52.954;5.932;2022-12-18T00:37:36;-3.90;99.90
53653;DHT22;39553;52.954;5.932;2022-12-18T00:40:02;-4.00;99.90
53653;DHT22;39553;52.954;5.932;2022-12-18T00:42:28;-3.90;99.90
53653;DHT22;39553;52.954;5.932;2022-12-18T00:45:12;-4.00;99.90
53653;DHT22;39553;52.954;5.932;2022-12-18T00:47:40;-3.90;99.90
53653;DHT22;39553;52.954;5.932;2022-12-18T00:50:07;-2.10;99.90
53653;DHT22;39553;52.954;5.932;2022-12-18T00:52:32;-4.00;99.90
53653;DHT22;39553;52.954;5.932;2022-12-18T00:54:58;-3.00;99.90
53653;DHT22;39553;52.954;5.932;2022-12-18T00:57:24;-2.50;99.90
53653;DHT22;39553;52.954;5.932;2022-12-18T00:59:50;-2.50;99.90
53653;DHT22;39553;52.954;5.932;2022-12-18T01:02:15;-4.10;99.90
53653;DHT22;39553;52.954;5.932;2022-12-18T01:04:41;-1.90;99.90
53653;DHT22;39553;52.954;5.932;2022-12-18T01:07:07;-4.00;99.90
53653;DHT22;39553;52.954;5.932;2022-12-18T01:09:32;-4.00;99.90
53653;DHT22;39553;52.954;5.932;2022-12-18T01:11:58;-2.00;99.90
53653;DHT22;39553;52.954;5.932;2022-12-18T01:14:24;-4.40;99.90
53653;DHT22;39553;52.954;5.932;2022-12-18T01:16:51;-4.10;99.90
53653;DHT22;39553;52.954;5.932;2022-12-18T01:19:17;-2.40;99.90
53653;DHT22;39553;52.954;5.932;2022-12-18T01:21:42;-4.10;99.90
53653;DHT22;39553;52.954;5.932;2022-12-18T01:24:11;-2.10;99.90
53653;DHT22;39553;52.954;5.932;2022-12-18T01:26:37;-1.80;99.90
53653;DHT22;39553;52.954;5.932;2022-12-18T01:29:03;-4.20;99.90
53653;DHT22;39553;52.954;5.932;2022-12-18T01:31:31;-4.20;99.90
53653;DHT22;39553;52.954;5.932;2022-12-18T01:33:59;-1.90;99.90
53653;DHT22;39553;52.954;5.932;2022-12-18T01:36:31;-2.90;99.90
53653;DHT22;39553;52.954;5.932;2022-12-18T01:39:01;-4.40;99.90
53653;DHT22;39553;52.954;5.932;2022-12-18T01:41:28;-2.30;99.90
53653;DHT22;39553;52.954;5.932;2022-12-18T01:49:53;-4.40;99.90
53653;DHT22;39553;52.954;5.932;2022-12-18T01:52:20;-4.40;99.90
53653;DHT22;39553;52.954;5.932;2022-12-18T01:54:48;-4.50;99.90
53653;DHT22;39553;52.954;5.932;2022-12-18T01:57:15;-4.40;99.90
53653;DHT22;39553;52.954;5.932;2022-12-18T01:59:43;-3.40;99.90
53653;DHT22;39553;52.954;5.932;2022-12-18T02:02:11;-4.40;99.90
53653;DHT22;39553;52.954;5.932;2022-12-18T02:04:37;-2.90;99.90
53653;DHT22;39553;52.954;5.932;2022-12-18T02:07:08;-4.50;99.90
53653;DHT22;39553;52.954;5.932;2022-12-18T02:09:42;-4.50;99.90
53653;DHT22;39553;52.954;5.932;2022-12-18T02:12:16;-4.50;99.90
53653;DHT22;39553;52.954;5.932;2022-12-18T02:15:00;-4.60;99.90
53653;DHT22;39553;52.954;5.932;2022-12-18T02:17:36;-4.60;99.90
53653;DHT22;39553;52.954;5.932;2022-12-18T02:23:09;-4.60;99.90
53653;DHT22;39553;52.954;5.932;2022-12-18T02:26:11;-4.60;99.90
53653;DHT22;39553;52.954;5.932;2022-12-18T02:28:43;-4.60;99.90
53653;DHT22;39553;52.954;5.932;2022-12-18T02:31:14;-4.70;99.90
53653;DHT22;39553;52.954;5.932;2022-12-18T02:33:44;-4.70;99.90
53653;DHT22;39553;52.954;5.932;2022-12-18T02:36:12;-4.60;99.90
53653;DHT22;39553;52.954;5.932;2022-12-18T02:38:42;-4.70;99.90
53653;DHT22;39553;52.954;5.932;2022-12-18T02:41:08;-4.60;99.90
53653;DHT22;39553;52.954;5.932;2022-12-18T02:43:34;-4.70;99.90
53653;DHT22;39553;52.954;5.932;2022-12-18T02:46:00;-2.60;99.90
53653;DHT22;39553;52.954;5.932;2022-12-18T02:48:46;-4.90;99.90
53653;DHT22;39553;52.954;5.932;2022-12-18T02:51:29;-3.90;99.90
53653;DHT22;39553;52.954;5.932;2022-12-18T02:54:05;-4.70;99.90
53653;DHT22;39553;52.954;5.932;2022-12-18T02:56:39;-4.70;99.90
53653;DHT22;39553;52.954;5.932;2022-12-18T02:59:16;-3.30;99.90
53653;DHT22;39553;52.954;5.932;2022-12-18T03:02:06;-4.50;99.90
53653;DHT22;39553;52.954;5.932;2022-12-18T03:04:42;-4.80;99.90
53653;DHT22;39553;52.954;5.932;2022-12-18T03:07:15;-4.80;99.90
53653;DHT22;39553;52.954;5.932;2022-12-18T03:09:44;-3.30;99.90
53653;DHT22;39553;52.954;5.932;2022-12-18T03:17:32;-6.40;99.90
53653;DHT22;39553;52.954;5.932;2022-12-18T03:20:04;-4.90;99.90
53653;DHT22;39553;52.954;5.932;2022-12-18T03:22:32;-4.90;99.90
53653;DHT22;39553;52.954;5.932;2022-12-18T03:25:01;-5.00;99.90
53653;DHT22;39553;52.954;5.932;2022-12-18T03:27:30;-5.00;99.90
53653;DHT22;39553;52.954;5.932;2022-12-18T03:30:03;-3.30;99.90
53653;DHT22;39553;52.954;5.932;2022-12-18T03:32:42;-5.00;99.90
53653;DHT22;39553;52.954;5.932;2022-12-18T03:35:13;-5.10;99.90
53653;DHT22;39553;52.954;5.932;2022-12-18T03:37:40;-3.00;99.90
53653;DHT22;39553;52.954;5.932;2022-12-18T03:40:06;-5.30;99.90
53653;DHT22;39553;52.954;5.932;2022-12-18T03:45:11;-5.20;99.90
53653;DHT22;39553;52.954;5.932;2022-12-18T03:48:01;-5.30;99.90
53653;DHT22;39553;52.954;5.932;2022-12-18T03:51:26;-5.40;99.90
53653;DHT22;39553;52.954;5.932;2022-12-18T03:53:49;-5.50;99.90
53653;DHT22;39553;52.954;5.932;2022-12-18T03:56:18;-5.50;99.90
53653;DHT22;39553;52.954;5.932;2022-12-18T03:58:48;-5.50;99.90
53653;DHT22;39553;52.954;5.932;2022-12-18T04:01:16;-5.70;99.90
53653;DHT22;39553;52.954;5.932;2022-12-18T04:03:46;-5.60;99.90
53653;DHT22;39553;52.954;5.932;2022-12-18T04:06:15;-3.40;99.90
53653;DHT22;39553;52.954;5.932;2022-12-18T04:08:41;-5.60;99.90
53653;DHT22;39553;52.954;5.932;2022-12-18T04:11:08;-5.70;99.90
53653;DHT22;39553;52.954;5.932;2022-12-18T04:13:38;-5.70;99.90
53653;DHT22;39553;52.954;5.932;2022-12-18T04:16:04;-5.70;99.90
53653;DHT22;39553;52.954;5.932;2022-12-18T04:18:30;-5.70;99.90
53653;DHT22;39553;52.954;5.932;2022-12-18T04:20:56;-5.80;99.90
53653;DHT22;39553;52.954;5.932;2022-12-18T04:23:22;-3.80;99.90
53653;DHT22;39553;52.954;5.932;2022-12-18T04:25:48;-5.80;99.90
53653;DHT22;39553;52.954;5.932;2022-12-18T04:28:14;-5.80;99.90
53653;DHT22;39553;52.954;5.932;2022-12-18T04:30:39;-4.80;99.90
53653;DHT22;39553;52.954;5.932;2022-12-18T04:33:12;-5.90;99.90
53653;DHT22;39553;52.954;5.932;2022-12-18T04:35:41;-5.80;99.90
53653;DHT22;39553;52.954;5.932;2022-12-18T04:38:07;-5.90;99.90
53653;DHT22;39553;52.954;5.932;2022-12-18T04:40:37;-6.00;99.90
53653;DHT22;39553;52.954;5.932;2022-12-18T04:43:03;-5.90;99.90
53653;DHT22;39553;52.954;5.932;2022-12-18T04:45:30;-6.00;99.90
53653;DHT22;39553;52.954;5.932;2022-12-18T04:48:01;-6.00;99.90
53653;DHT22;39553;52.954;5.932;2022-12-18T04:50:27;-6.10;99.90
53653;DHT22;39553;52.954;5.932;2022-12-18T04:52:53;-6.10;99.90
53653;DHT22;39553;52.954;5.932;2022-12-18T04:55:19;-6.10;99.90
53653;DHT22;39553;52.954;5.932;2022-12-18T04:57:44;-5.10;99.90
53653;DHT22;39553;52.954;5.932;2022-12-18T05:00:11;-6.10;99.90
53653;DHT22;39553;52.954;5.932;2022-12-18T05:02:37;-6.10;99.90
53653;DHT22;39553;52.954;5.932;2022-12-18T05:05:03;-4.30;99.90
53653;DHT22;39553;52.954;5.932;2022-12-18T05:07:28;-6.20;99.90
53653;DHT22;39553;52.954;5.932;2022-12-18T05:09:54;-6.20;99.90
53653;DHT22;39553;52.954;5.932;2022-12-18T05:12:20;-6.30;99.90
53653;DHT22;39553;52.954;5.932;2022-12-18T05:14:45;-6.20;99.90
53653;DHT22;39553;52.954;5.932;2022-12-18T05:17:11;-6.30;99.90
53653;DHT22;39553;52.954;5.932;2022-12-18T05:19:37;-6.30;99.90
53653;DHT22;39553;52.954;5.932;2022-12-18T05:22:03;-6.30;99.90
53653;DHT22;39553;52.954;5.932;2022-12-18T05:24:29;-4.00;99.90
53653;DHT22;39553;52.954;5.932;2022-12-18T05:26:54;-6.30;99.90
53653;DHT22;39553;52.954;5.932;2022-12-18T05:29:20;-6.30;99.90
53653;DHT22;39553;52.954;5.932;2022-12-18T05:31:46;-6.30;99.90
53653;DHT22;39553;52.954;5.932;2022-12-18T05:34:12;-6.00;99.90
53653;DHT22;39553;52.954;5.932;2022-12-18T05:36:37;-6.40;99.90
53653;DHT22;39553;52.954;5.932;2022-12-18T05:39:03;-6.40;99.90
53653;DHT22;39553;52.954;5.932;2022-12-18T05:41:29;-6.50;99.90
53653;DHT22;39553;52.954;5.932;2022-12-18T05:43:55;-6.40;99.90
53653;DHT22;39553;52.954;5.932;2022-12-18T05:46:20;-6.50;99.90
53653;DHT22;39553;52.954;5.932;2022-12-18T05:48:46;-6.50;99.90
53653;DHT22;39553;52.954;5.932;2022-12-18T05:51:15;-6.50;99.90
53653;DHT22;39553;52.954;5.932;2022-12-18T05:53:42;-6.60;99.90
53653;DHT22;39553;52.954;5.932;2022-12-18T05:56:14;-6.60;99.90
53653;DHT22;39553;52.954;5.932;2022-12-18T05:58:41;-6.60;99.90
53653;DHT22;39553;52.954;5.932;2022-12-18T06:01:13;-5.50;99.90
53653;DHT22;39553;52.954;5.932;2022-12-18T06:03:39;-6.60;99.90
53653;DHT22;39553;52.954;5.932;2022-12-18T06:06:22;-6.60;99.90
53653;DHT22;39553;52.954;5.932;2022-12-18T06:08:49;-6.60;99.90
53653;DHT22;39553;52.954;5.932;2022-12-18T06:11:23;-4.70;99.90
53653;DHT22;39553;52.954;5.932;2022-12-18T06:13:50;-6.70;99.90
53653;DHT22;39553;52.954;5.932;2022-12-18T06:16:17;-6.70;99.90
53653;DHT22;39553;52.954;5.932;2022-12-18T06:18:42;-6.70;99.90
53653;DHT22;39553;52.954;5.932;2022-12-18T06:21:08;-6.70;99.90
53653;DHT22;39553;52.954;5.932;2022-12-18T06:23:34;-6.70;99.90
53653;DHT22;39553;52.954;5.932;2022-12-18T06:26:04;-6.70;99.90
53653;DHT22;39553;52.954;5.932;2022-12-18T06:28:31;-6.70;99.90
53653;DHT22;39553;52.954;5.932;2022-12-18T06:30:56;-6.70;99.90
53653;DHT22;39553;52.954;5.932;2022-12-18T06:33:26;-6.60;99.90
53653;DHT22;39553;52.954;5.932;2022-12-18T06:35:52;-6.70;99.90
53653;DHT22;39553;52.954;5.932;2022-12-18T06:38:18;-6.70;99.90
53653;DHT22;39553;52.954;5.932;2022-12-18T06:40:44;-6.70;99.90
53653;DHT22;39553;52.954;5.932;2022-12-18T06:43:11;-6.70;99.90
53653;DHT22;39553;52.954;5.932;2022-12-18T06:45:36;-7.90;99.90
53653;DHT22;39553;52.954;5.932;2022-12-18T06:48:02;-6.70;99.90
53653;DHT22;39553;52.954;5.932;2022-12-18T06:50:28;-6.70;99.90
53653;DHT22;39553;52.954;5.932;2022-12-18T06:52:54;-6.60;99.90
53653;DHT22;39553;52.954;5.932;2022-12-18T06:55:22;-6.70;99.90
53653;DHT22;39553;52.954;5.932;2022-12-18T06:57:47;-6.60;99.90
53653;DHT22;39553;52.954;5.932;2022-12-18T07:00:13;-6.60;99.90
53653;DHT22;39553;52.954;5.932;2022-12-18T07:02:39;-6.60;99.90
53653;DHT22;39553;52.954;5.932;2022-12-18T07:05:06;-6.60;99.90
53653;DHT22;39553;52.954;5.932;2022-12-18T07:07:33;-6.50;99.90
53653;DHT22;39553;52.954;5.932;2022-12-18T07:09:59;-5.00;99.90
53653;DHT22;39553;52.954;5.932;2022-12-18T07:12:27;-6.50;99.90
53653;DHT22;39553;52.954;5.932;2022-12-18T07:14:52;-6.60;99.90
53653;DHT22;39553;52.954;5.932;2022-12-18T07:17:18;-5.10;99.90
53653;DHT22;39553;52.954;5.932;2022-12-18T07:19:44;-4.20;99.90
53653;DHT22;39553;52.954;5.932;2022-12-18T07:22:10;-4.80;99.90
53653;DHT22;39553;52.954;5.932;2022-12-18T07:24:35;-4.90;99.90
53653;DHT22;39553;52.954;5.932;2022-12-18T07:27:01;-6.50;99.90
53653;DHT22;39553;52.954;5.932;2022-12-18T07:29:27;-4.60;99.90
53653;DHT22;39553;52.954;5.932;2022-12-18T07:31:53;-5.00;99.90
53653;DHT22;39553;52.954;5.932;2022-12-18T07:34:19;-6.40;99.90
53653;DHT22;39553;52.954;5.932;2022-12-18T07:36:45;-6.30;99.90
53653;DHT22;39553;52.954;5.932;2022-12-18T07:39:11;-6.30;99.90
53653;DHT22;39553;52.954;5.932;2022-12-18T07:41:37;-6.20;99.90
53653;DHT22;39553;52.954;5.932;2022-12-18T07:44:03;-6.20;99.90
53653;DHT22;39553;52.954;5.932;2022-12-18T07:46:28;-6.10;99.90
53653;DHT22;39553;52.954;5.932;2022-12-18T07:48:54;-6.10;99.90
53653;DHT22;39553;52.954;5.932;2022-12-18T07:51:20;-6.10;99.90
53653;DHT22;39553;52.954;5.932;2022-12-18T07:53:46;-6.00;99.90
53653;DHT22;39553;52.954;5.932;2022-12-18T07:56:12;-6.00;99.90
53653;DHT22;39553;52.954;5.932;2022-12-18T07:58:38;-6.00;99.90
53653;DHT22;39553;52.954;5.932;2022-12-18T08:01:10;-5.90;99.90
53653;DHT22;39553;52.954;5.932;2022-12-18T08:03:37;-5.80;99.90
53653;DHT22;39553;52.954;5.932;2022-12-18T08:06:04;-5.80;99.90
53653;DHT22;39553;52.954;5.932;2022-12-18T08:08:30;-5.70;99.90
53653;DHT22;39553;52.954;5.932;2022-12-18T08:10:57;-5.60;99.90
53653;DHT22;39553;52.954;5.932;2022-12-18T08:13:23;-4.30;99.90
53653;DHT22;39553;52.954;5.932;2022-12-18T08:16:00;-5.50;99.90
53653;DHT22;39553;52.954;5.932;2022-12-18T08:18:27;-3.50;99.90
53653;DHT22;39553;52.954;5.932;2022-12-18T08:20:54;-5.40;99.90
53653;DHT22;39553;52.954;5.932;2022-12-18T08:23:19;-5.40;99.90
53653;DHT22;39553;52.954;5.932;2022-12-18T08:25:45;-4.80;99.90
53653;DHT22;39553;52.954;5.932;2022-12-18T08:28:11;-5.30;99.90
53653;DHT22;39553;52.954;5.932;2022-12-18T08:30:37;-5.10;99.90
53653;DHT22;39553;52.954;5.932;2022-12-18T08:33:03;-5.00;99.90
53653;DHT22;39553;52.954;5.932;2022-12-18T08:35:29;-5.00;99.90
53653;DHT22;39553;52.954;5.932;2022-12-18T08:37:54;-4.90;99.90
53653;DHT22;39553;52.954;5.932;2022-12-18T08:40:20;-4.80;99.90
53653;DHT22;39553;52.954;5.932;2022-12-18T08:42:46;-4.70;99.90
53653;DHT22;39553;52.954;5.932;2022-12-18T08:45:30;-4.10;99.90
53653;DHT22;39553;52.954;5.932;2022-12-18T08:47:56;-4.50;99.90
53653;DHT22;39553;52.954;5.932;2022-12-18T08:50:22;-3.70;99.90
53653;DHT22;39553;52.954;5.932;2022-12-18T08:52:47;-2.60;99.90
53653;DHT22;39553;52.954;5.932;2022-12-18T08:55:13;-4.30;99.90
53653;DHT22;39553;52.954;5.932;2022-12-18T08:57:39;-3.70;99.90
53653;DHT22;39553;52.954;5.932;2022-12-18T09:00:05;-2.70;99.90
53653;DHT22;39553;52.954;5.932;2022-12-18T09:02:31;-4.00;99.90
53653;DHT22;39553;52.954;5.932;2022-12-18T09:05:00;-3.50;99.90
53653;DHT22;39553;52.954;5.932;2022-12-18T09:07:26;-3.90;99.90
53653;DHT22;39553;52.954;5.932;2022-12-18T09:09:52;-3.80;99.90
53653;DHT22;39553;52.954;5.932;2022-12-18T09:12:18;-3.70;99.90
53653;DHT22;39553;52.954;5.932;2022-12-18T09:14:43;-3.40;99.90
53653;DHT22;39553;52.954;5.932;2022-12-18T09:17:09;-3.20;99.90
53653;DHT22;39553;52.954;5.932;2022-12-18T09:19:35;-3.10;99.90
53653;DHT22;39553;52.954;5.932;2022-12-18T09:22:00;-3.10;99.90
53653;DHT22;39553;52.954;5.932;2022-12-18T09:24:26;-2.60;99.90
53653;DHT22;39553;52.954;5.932;2022-12-18T09:26:55;-1.10;99.90
53653;DHT22;39553;52.954;5.932;2022-12-18T09:29:21;-2.90;99.90
53653;DHT22;39553;52.954;5.932;2022-12-18T09:31:47;-2.90;99.90
53653;DHT22;39553;52.954;5.932;2022-12-18T09:34:13;-2.90;99.90
53653;DHT22;39553;52.954;5.932;2022-12-18T09:36:41;-2.90;99.90
53653;DHT22;39553;52.954;5.932;2022-12-18T09:39:07;-2.80;99.90
53653;DHT22;39553;52.954;5.932;2022-12-18T09:41:52;-1.10;99.90
53653;DHT22;39553;52.954;5.932;2022-12-18T09:49:23;-2.70;99.90
53653;DHT22;39553;52.954;5.932;2022-12-18T09:52:41;-2.70;99.90
53653;DHT22;39553;52.954;5.932;2022-12-18T09:55:22;-2.60;99.90
53653;DHT22;39553;52.954;5.932;2022-12-18T09:57:53;-2.60;99.90
53653;DHT22;39553;52.954;5.932;2022-12-18T10:00:22;-2.60;99.90
53653;DHT22;39553;52.954;5.932;2022-12-18T10:02:50;-2.50;99.90
53653;DHT22;39553;52.954;5.932;2022-12-18T10:05:24;-2.60;99.90
53653;DHT22;39553;52.954;5.932;2022-12-18T10:08:16;-2.60;99.90
53653;DHT22;39553;52.954;5.932;2022-12-18T10:10:49;-0.70;99.90
53653;DHT22;39553;52.954;5.932;2022-12-18T10:16:19;-2.70;99.90
53653;DHT22;39553;52.954;5.932;2022-12-18T10:21:33;-2.80;99.90
53653;DHT22;39553;52.954;5.932;2022-12-18T10:26:43;-2.70;99.90
53653;DHT22;39553;52.954;5.932;2022-12-18T10:29:13;-2.60;99.90
53653;DHT22;39553;52.954;5.932;2022-12-18T10:31:40;-2.70;99.90
53653;DHT22;39553;52.954;5.932;2022-12-18T10:34:10;-2.70;99.90
53653;DHT22;39553;52.954;5.932;2022-12-18T10:36:37;-2.60;99.90
53653;DHT22;39553;52.954;5.932;2022-12-18T10:39:25;-2.60;99.90
53653;DHT22;39553;52.954;5.932;2022-12-18T10:41:52;-2.60;99.90
53653;DHT22;39553;52.954;5.932;2022-12-18T10:44:34;-2.50;99.90
53653;DHT22;39553;52.954;5.932;2022-12-18T10:47:05;-2.60;99.90
53653;DHT22;39553;52.954;5.932;2022-12-18T10:49:33;-2.50;99.90
53653;DHT22;39553;52.954;5.932;2022-12-18T10:52:21;-1.70;99.90
53653;DHT22;39553;52.954;5.932;2022-12-18T10:55:01;-2.50;99.90
53653;DHT22;39553;52.954;5.932;2022-12-18T10:57:31;-1.90;99.90
53653;DHT22;39553;52.954;5.932;2022-12-18T11:00:13;-2.50;99.90
53653;DHT22;39553;52.954;5.932;2022-12-18T11:02:45;-1.50;99.90
53653;DHT22;39553;52.954;5.932;2022-12-18T11:05:28;-2.40;99.90
53653;DHT22;39553;52.954;5.932;2022-12-18T11:07:55;-2.40;99.90
53653;DHT22;39553;52.954;5.932;2022-12-18T11:10:28;-1.60;99.90
53653;DHT22;39553;52.954;5.932;2022-12-18T11:12:54;-2.20;99.90
53653;DHT22;39553;52.954;5.932;2022-12-18T11:15:29;-2.20;99.90
53653;DHT22;39553;52.954;5.932;2022-12-18T11:17:56;-2.10;99.90
53653;DHT22;39553;52.954;5.932;2022-12-18T11:20:42;-2.10;99.90
53653;DHT22;39553;52.954;5.932;2022-12-18T11:23:13;-2.00;99.90
53653;DHT22;39553;52.954;5.932;2022-12-18T11:25:39;-2.00;99.90
53653;DHT22;39553;52.954;5.932;2022-12-18T11:28:25;-2.00;99.90
53653;DHT22;39553;52.954;5.932;2022-12-18T11:31:25;-2.00;99.90
53653;DHT22;39553;52.954;5.932;2022-12-18T11:33:57;-1.90;99.90
53653;DHT22;39553;52.954;5.932;2022-12-18T11:36:28;-1.90;99.90
53653;DHT22;39553;52.954;5.932;2022-12-18T11:38:56;-1.80;99.90
53653;DHT22;39553;52.954;5.932;2022-12-18T11:44:38;-1.80;99.90
53653;DHT22;39553;52.954;5.932;2022-12-18T11:47:21;-1.20;99.90
53653;DHT22;39553;52.954;5.932;2022-12-18T11:49:51;-1.70;99.90
53653;DHT22;39553;52.954;5.932;2022-12-18T11:52:36;-1.70;99.90
53653;DHT22;39553;52.954;5.932;2022-12-18T12:00:22;-1.70;99.90
53653;DHT22;39553;52.954;5.932;2022-12-18T12:08:11;-1.60;99.90
53653;DHT22;39553;52.954;5.932;2022-12-18T12:13:48;-1.60;99.90
53653;DHT22;39553;52.954;5.932;2022-12-18T12:16:28;-1.60;99.90
53653;DHT22;39553;52.954;5.932;2022-12-18T12:21:54;-1.60;99.90
53653;DHT22;39553;52.954;5.932;2022-12-18T12:30:39;-1.50;99.90
53653;DHT22;39553;52.954;5.932;2022-12-18T12:39:01;-1.40;99.90
53653;DHT22;39553;52.954;5.932;2022-12-18T12:41:32;-1.40;99.90
53653;DHT22;39553;52.954;5.932;2022-12-18T12:44:24;-1.70;99.90
53653;DHT22;39553;52.954;5.932;2022-12-18T12:46:52;-1.40;99.90
53653;DHT22;39553;52.954;5.932;2022-12-18T12:49:23;0.00;99.90
53653;DHT22;39553;52.954;5.932;2022-12-18T12:52:04;0.00;99.90
53653;DHT22;39553;52.954;5.932;2022-12-18T12:54:32;-1.30;99.90
53653;DHT22;39553;52.954;5.932;2022-12-18T12:57:14;-1.30;99.90
53653;DHT22;39553;52.954;5.932;2022-12-18T12:59:52;-1.10;99.90
53653;DHT22;39553;52.954;5.932;2022-12-18T13:02:32;-1.20;99.90
53653;DHT22;39553;52.954;5.932;2022-12-18T13:05:13;-1.30;99.90
53653;DHT22;39553;52.954;5.932;2022-12-18T13:08:12;-1.20;99.90
53653;DHT22;39553;52.954;5.932;2022-12-18T13:10:47;-1.30;99.90
53653;DHT22;39553;52.954;5.932;2022-12-18T13:13:16;-1.20;99.90
53653;DHT22;39553;52.954;5.932;2022-12-18T13:15:47;-1.20;99.90
53653;DHT22;39553;52.954;5.932;2022-12-18T13:18:21;0.30;99.90
53653;DHT22;39553;52.954;5.932;2022-12-18T13:21:14;-1.20;99.90
53653;DHT22;39553;52.954;5.932;2022-12-18T13:23:42;-1.00;99.90
53653;DHT22;39553;52.954;5.932;2022-12-18T13:31:15;-1.20;99.90
53653;DHT22;39553;52.954;5.932;2022-12-18T13:36:43;-1.20;99.90
53653;DHT22;39553;52.954;5.932;2022-12-18T13:41:46;-1.20;99.90
53653;DHT22;39553;52.954;5.932;2022-12-18T13:47:41;-1.20;99.90
53653;DHT22;39553;52.954;5.932;2022-12-18T13:50:20;-1.30;99.90
53653;DHT22;39553;52.954;5.932;2022-12-18T13:52:47;-1.20;99.90
53653;DHT22;39553;52.954;5.932;2022-12-18T13:55:19;-1.20;99.90
53653;DHT22;39553;52.954;5.932;2022-12-18T13:57:46;-1.30;99.90
53653;DHT22;39553;52.954;5.932;2022-12-18T14:02:46;-1.20;99.90
53653;DHT22;39553;52.954;5.932;2022-12-18T14:05:29;-0.10;99.90
53653;DHT22;39553;52.954;5.932;2022-12-18T14:08:00;-1.30;99.90
53653;DHT22;39553;52.954;5.932;2022-12-18T14:10:27;-1.30;99.90
53653;DHT22;39553;52.954;5.932;2022-12-18T14:12:53;-1.30;99.90
53653;DHT22;39553;52.954;5.932;2022-12-18T14:17:58;-0.90;99.90
53653;DHT22;39553;52.954;5.932;2022-12-18T14:20:26;0.60;99.90
53653;DHT22;39553;52.954;5.932;2022-12-18T14:22:53;-0.50;99.90
53653;DHT22;39553;52.954;5.932;2022-12-18T14:25:22;-1.40;99.90
53653;DHT22;39553;52.954;5.932;2022-12-18T14:28:02;0.00;99.90
53653;DHT22;39553;52.954;5.932;2022-12-18T14:30:46;-1.40;99.90
53653;DHT22;39553;52.954;5.932;2022-12-18T14:33:24;-1.50;99.90
53653;DHT22;39553;52.954;5.932;2022-12-18T14:35:56;-0.90;99.90
53653;DHT22;39553;52.954;5.932;2022-12-18T14:38:31;-1.20;99.90
53653;DHT22;39553;52.954;5.932;2022-12-18T14:41:10;-1.50;99.90
53653;DHT22;39553;52.954;5.932;2022-12-18T14:43:39;-1.20;99.90
53653;DHT22;39553;52.954;5.932;2022-12-18T14:46:24;-1.50;99.90
53653;DHT22;39553;52.954;5.932;2022-12-18T14:48:51;-1.20;99.90
53653;DHT22;39553;52.954;5.932;2022-12-18T14:51:22;-1.50;99.90
53653;DHT22;39553;52.954;5.932;2022-12-18T14:59:01;-0.40;99.90
53653;DHT22;39553;52.954;5.932;2022-12-18T15:03:56;-1.50;99.90
53653;DHT22;39553;52.954;5.932;2022-12-18T15:08:51;-1.50;99.90
53653;DHT22;39553;52.954;5.932;2022-12-18T15:16:58;-1.40;99.90
53653;DHT22;39553;52.954;5.932;2022-12-18T15:19:39;-1.50;99.90
53653;DHT22;39553;52.954;5.932;2022-12-18T15:24:49;-1.40;99.90
53653;DHT22;39553;52.954;5.932;2022-12-18T15:27:33;0.30;99.90
53653;DHT22;39553;52.954;5.932;2022-12-18T15:32:36;-1.20;99.90
53653;DHT22;39553;52.954;5.932;2022-12-18T15:35:12;-1.40;99.90
53653;DHT22;39553;52.954;5.932;2022-12-18T15:37:39;-1.40;99.90
53653;DHT22;39553;52.954;5.932;2022-12-18T15:40:05;-0.50;99.90
53653;DHT22;39553;52.954;5.932;2022-12-18T15:42:31;-1.40;99.90
53653;DHT22;39553;52.954;5.932;2022-12-18T15:45:15;-1.40;99.90
53653;DHT22;39553;52.954;5.932;2022-12-18T15:47:41;-2.30;99.90
53653;DHT22;39553;52.954;5.932;2022-12-18T15:50:08;-1.40;99.90
53653;DHT22;39553;52.954;5.932;2022-12-18T15:52:40;-1.30;99.90
53653;DHT22;39553;52.954;5.932;2022-12-18T15:55:19;-1.30;99.90
53653;DHT22;39553;52.954;5.932;2022-12-18T15:58:05;-1.30;99.90
53653;DHT22;39553;52.954;5.932;2022-12-18T16:00:32;-1.20;99.90
53653;DHT22;39553;52.954;5.932;2022-12-18T16:02:59;-1.20;99.90
53653;DHT22;39553;52.954;5.932;2022-12-18T16:05:26;-0.90;99.90
53653;DHT22;39553;52.954;5.932;2022-12-18T16:07:53;-1.20;99.90
53653;DHT22;39553;52.954;5.932;2022-12-18T16:10:19;0.10;99.90
53653;DHT22;39553;52.954;5.932;2022-12-18T16:12:45;-1.20;99.90
53653;DHT22;39553;52.954;5.932;2022-12-18T16:15:13;0.20;99.90
53653;DHT22;39553;52.954;5.932;2022-12-18T16:17:40;-1.10;99.90
53653;DHT22;39553;52.954;5.932;2022-12-18T16:20:12;-1.10;99.90
53653;DHT22;39553;52.954;5.932;2022-12-18T16:22:42;-1.10;99.90
53653;DHT22;39553;52.954;5.932;2022-12-18T16:25:27;-1.10;99.90
53653;DHT22;39553;52.954;5.932;2022-12-18T16:27:54;-1.10;99.90
53653;DHT22;39553;52.954;5.932;2022-12-18T16:30:23;-1.10;99.90
53653;DHT22;39553;52.954;5.932;2022-12-18T16:32:49;-1.10;99.90
53653;DHT22;39553;52.954;5.932;2022-12-18T16:35:16;-0.90;99.90
53653;DHT22;39553;52.954;5.932;2022-12-18T16:37:42;-1.00;99.90
53653;DHT22;39553;52.954;5.932;2022-12-18T16:40:11;-1.00;99.90
53653;DHT22;39553;52.954;5.932;2022-12-18T16:42:39;-0.90;99.90
53653;DHT22;39553;52.954;5.932;2022-12-18T16:45:06;-0.90;99.90
53653;DHT22;39553;52.954;5.932;2022-12-18T16:47:34;-0.80;99.90
53653;DHT22;39553;52.954;5.932;2022-12-18T16:50:00;-0.80;99.90
53653;DHT22;39553;52.954;5.932;2022-12-18T16:52:26;-0.80;99.90
53653;DHT22;39553;52.954;5.932;2022-12-18T16:54:52;-0.80;99.90
53653;DHT22;39553;52.954;5.932;2022-12-18T16:57:19;-0.80;99.90
53653;DHT22;39553;52.954;5.932;2022-12-18T16:59:46;-0.80;99.90
53653;DHT22;39553;52.954;5.932;2022-12-18T17:02:20;-0.80;99.90
53653;DHT22;39553;52.954;5.932;2022-12-18T17:04:46;0.60;99.90
53653;DHT22;39553;52.954;5.932;2022-12-18T17:07:13;-0.20;99.90
53653;DHT22;39553;52.954;5.932;2022-12-18T17:09:39;-0.80;99.90
53653;DHT22;39553;52.954;5.932;2022-12-18T17:12:05;-0.60;99.90
53653;DHT22;39553;52.954;5.932;2022-12-18T17:14:32;-0.80;99.90
53653;DHT22;39553;52.954;5.932;2022-12-18T17:16:58;-0.80;99.90
53653;DHT22;39553;52.954;5.932;2022-12-18T17:19:25;0.40;99.90
53653;DHT22;39553;52.954;5.932;2022-12-18T17:21:51;-0.70;99.90
53653;DHT22;39553;52.954;5.932;2022-12-18T17:24:18;-0.60;99.90
53653;DHT22;39553;52.954;5.932;2022-12-18T17:26:44;-0.50;99.90
53653;DHT22;39553;52.954;5.932;2022-12-18T17:29:15;-0.60;99.90
53653;DHT22;39553;52.954;5.932;2022-12-18T17:31:42;-0.60;99.90